createdAt,value
2023-01-07T00:01:01.599Z,8.40
2023-01-07T00:03:51.814Z,8.40
2023-01-07T00:06:42.291Z,8.40
2023-01-07T00:09:33.946Z,8.30
2023-01-07T00:12:22.858Z,8.30
2023-01-07T00:15:12.691Z,8.30
2023-01-07T00:18:01.721Z,8.20
2023-01-07T00:20:50.489Z,8.20
2023-01-07T00:23:40.375Z,8.20
2023-01-07T00:26:32.916Z,8.20
2023-01-07T00:29:22.042Z,8.20
2023-01-07T00:32:10.668Z,8.20
2023-01-07T00:34:59.374Z,8.20
2023-01-07T00:37:50.795Z,8.20
2023-01-07T00:40:39.460Z,8.20
2023-01-07T00:43:30.121Z,8.20
2023-01-07T00:46:19.003Z,8.20
2023-01-07T00:49:07.632Z,8.20
2023-01-07T00:51:56.281Z,8.10
2023-01-07T00:54:44.910Z,8.10
2023-01-07T00:57:33.572Z,8.10
2023-01-07T01:00:24.971Z,8.10
2023-01-07T01:03:13.946Z,8.10
2023-01-07T01:06:03.833Z,8.10
2023-01-07T01:08:52.443Z,8.10
2023-01-07T01:11:41.969Z,8.10
2023-01-07T01:14:30.695Z,8.10
2023-01-07T01:17:21.141Z,8.10
2023-01-07T01:20:13.157Z,8.10
2023-01-07T01:23:01.827Z,8.10
2023-01-07T01:25:50.506Z,8.00
2023-01-07T01:28:39.222Z,8.00
2023-01-07T01:31:27.898Z,7.90
2023-01-07T01:34:17.943Z,7.90
2023-01-07T01:37:06.562Z,7.90
2023-01-07T01:39:55.157Z,7.90
2023-01-07T01:42:43.834Z,7.90
2023-01-07T01:45:32.660Z,7.90
2023-01-07T01:48:22.776Z,7.90
2023-01-07T01:51:14.471Z,7.90
2023-01-07T01:54:05.146Z,7.80
2023-01-07T01:56:55.583Z,7.90
2023-01-07T01:59:46.322Z,7.90
2023-01-07T02:02:38.574Z,7.90
2023-01-07T02:05:31.071Z,7.90
2023-01-07T02:08:23.023Z,7.90
2023-01-07T02:11:25.013Z,7.90
2023-01-07T02:14:37.180Z,7.90
2023-01-07T02:17:37.361Z,7.90
2023-01-07T02:20:47.866Z,7.90
2023-01-07T02:24:20.647Z,7.90
2023-01-07T02:27:31.921Z,8.00
2023-01-07T02:30:39.262Z,8.10
2023-01-07T02:33:40.348Z,8.10
2023-01-07T02:36:38.488Z,8.00
2023-01-07T02:39:38.347Z,8.00
2023-01-07T02:42:34.341Z,7.80
2023-01-07T02:45:30.540Z,7.70
2023-01-07T02:48:21.995Z,7.70
2023-01-07T02:51:12.067Z,7.70
2023-01-07T02:54:01.099Z,7.60
2023-01-07T02:57:07.395Z,7.60
2023-01-07T03:00:23.197Z,7.70
2023-01-07T03:03:26.273Z,7.70
2023-01-07T03:06:33.952Z,7.70
2023-01-07T03:09:30.483Z,7.60
2023-01-07T03:12:28.336Z,7.60
2023-01-07T03:15:22.024Z,7.50
2023-01-07T03:18:16.207Z,7.50
2023-01-07T03:21:08.887Z,7.50
2023-01-07T03:23:59.919Z,7.60
2023-01-07T03:26:52.651Z,7.60
2023-01-07T03:29:41.693Z,7.60
2023-01-07T03:32:34.003Z,7.60
2023-01-07T03:35:24.559Z,7.60
2023-01-07T03:38:16.297Z,7.70
2023-01-07T03:41:06.702Z,7.60
2023-01-07T03:43:54.307Z,7.60
2023-01-07T03:46:43.376Z,7.60
2023-01-07T03:49:33.196Z,7.60
2023-01-07T03:52:21.947Z,7.60
2023-01-07T03:55:11.346Z,7.60
2023-01-07T03:58:01.389Z,7.60
2023-01-07T04:00:50.132Z,7.60
2023-01-07T04:03:38.805Z,7.60
2023-01-07T04:06:27.403Z,7.50
2023-01-07T04:09:18.876Z,7.60
2023-01-07T04:12:07.838Z,7.50
2023-01-07T04:14:59.239Z,7.60
2023-01-07T04:17:48.004Z,7.60
2023-01-07T04:20:36.579Z,7.60
2023-01-07T04:23:25.220Z,7.60
2023-01-07T04:26:13.879Z,7.60
2023-01-07T04:29:02.527Z,7.70
2023-01-07T04:31:52.585Z,7.60
2023-01-07T04:34:41.237Z,7.70
2023-01-07T04:37:29.842Z,7.70
2023-01-07T04:40:18.709Z,7.70
2023-01-07T04:43:07.343Z,7.70
2023-01-07T04:45:56.038Z,7.70
2023-01-07T04:48:46.100Z,7.70
2023-01-07T04:51:34.797Z,7.70
2023-01-07T04:54:23.391Z,7.70
2023-01-07T04:57:12.071Z,7.60
2023-01-07T05:00:00.941Z,7.60
2023-01-07T05:02:49.612Z,7.60
2023-01-07T05:05:39.796Z,7.60
2023-01-07T05:08:28.830Z,7.60
2023-01-07T05:11:21.661Z,7.70
2023-01-07T05:14:12.730Z,7.60
2023-01-07T05:17:01.535Z,7.60
2023-01-07T05:19:50.257Z,7.60
2023-01-07T05:22:40.334Z,7.60
2023-01-07T05:25:29.462Z,7.60
2023-01-07T05:28:18.062Z,7.60
2023-01-07T05:31:06.951Z,7.60
2023-01-07T05:33:55.658Z,7.50
2023-01-07T05:36:44.328Z,7.50
2023-01-07T05:39:37.179Z,7.50
2023-01-07T05:42:25.941Z,7.50
2023-01-07T05:45:14.550Z,7.50
2023-01-07T05:48:03.199Z,7.50
2023-01-07T05:50:51.979Z,7.50
2023-01-07T05:53:40.590Z,7.50
2023-01-07T05:56:30.594Z,7.50
2023-01-07T05:59:19.439Z,7.50
2023-01-07T06:02:08.116Z,7.50
2023-01-07T06:04:56.717Z,7.50
2023-01-07T06:07:45.483Z,7.40
2023-01-07T06:10:34.241Z,7.40
2023-01-07T06:13:24.284Z,7.40
2023-01-07T06:16:14.802Z,7.40
2023-01-07T06:19:03.429Z,7.40
2023-01-07T06:21:52.105Z,7.40
2023-01-07T06:24:40.883Z,7.40
2023-01-07T06:27:29.616Z,7.40
2023-01-07T06:30:19.811Z,7.40
2023-01-07T06:33:08.789Z,7.40
2023-01-07T06:35:57.410Z,7.40
2023-01-07T06:38:46.041Z,7.40
2023-01-07T06:41:34.744Z,7.30
2023-01-07T06:44:23.422Z,7.40
2023-01-07T06:47:13.475Z,7.30
2023-01-07T06:50:02.181Z,7.30
2023-01-07T06:52:50.815Z,7.30
2023-01-07T06:55:39.505Z,7.30
2023-01-07T06:58:28.100Z,7.30
2023-01-07T07:01:16.855Z,7.30
2023-01-07T07:04:07.032Z,7.30
2023-01-07T07:06:55.819Z,7.30
2023-01-07T07:09:44.467Z,7.30
2023-01-07T07:12:33.126Z,7.30
2023-01-07T07:15:21.720Z,7.30
2023-01-07T07:18:10.383Z,7.30
2023-01-07T07:21:00.373Z,7.30
2023-01-07T07:23:49.074Z,7.30
2023-01-07T07:26:37.736Z,7.30
2023-01-07T07:29:26.675Z,7.30
2023-01-07T07:32:15.311Z,7.30
2023-01-07T07:35:04.009Z,7.30
2023-01-07T07:37:54.034Z,7.30
2023-01-07T07:40:42.768Z,7.30
2023-01-07T07:43:31.406Z,7.30
2023-01-07T07:46:20.287Z,7.30
2023-01-07T07:49:09.056Z,7.30
2023-01-07T07:51:57.760Z,7.30
2023-01-07T07:54:47.900Z,7.30
2023-01-07T07:57:36.917Z,7.30
2023-01-07T08:00:26.043Z,7.30
2023-01-07T08:03:14.823Z,7.30
2023-01-07T08:06:05.211Z,7.40
2023-01-07T08:08:53.912Z,7.40
2023-01-07T08:11:43.960Z,7.40
2023-01-07T08:14:32.700Z,7.40
2023-01-07T08:17:21.388Z,7.50
2023-01-07T08:20:11.194Z,7.50
2023-01-07T08:23:00.504Z,7.40
2023-01-07T08:25:49.246Z,7.40
2023-01-07T08:28:39.471Z,7.40
2023-01-07T08:31:28.151Z,7.40
2023-01-07T08:34:16.821Z,7.50
2023-01-07T08:37:05.459Z,7.50
2023-01-07T08:39:54.052Z,7.40
2023-01-07T08:42:42.926Z,7.40
2023-01-07T08:45:33.279Z,7.50
2023-01-07T08:48:22.167Z,7.50
2023-01-07T08:51:10.800Z,7.50
2023-01-07T08:53:59.407Z,7.50
2023-01-07T08:56:48.035Z,7.50
2023-01-07T08:59:38.744Z,7.50
2023-01-07T09:02:28.908Z,7.50
2023-01-07T09:05:17.715Z,7.50
2023-01-07T09:08:07.245Z,7.60
2023-01-07T09:10:56.285Z,7.60
2023-01-07T09:13:44.868Z,7.60
2023-01-07T09:16:33.932Z,7.70
2023-01-07T09:19:24.118Z,7.60
2023-01-07T09:22:12.758Z,7.70
2023-01-07T09:25:01.492Z,7.60
2023-01-07T09:27:50.431Z,7.70
2023-01-07T09:30:39.035Z,7.70
2023-01-07T09:33:27.842Z,7.70
2023-01-07T09:36:17.915Z,7.70
2023-01-07T09:39:06.479Z,7.70
2023-01-07T09:42:00.472Z,7.70
2023-01-07T09:45:05.811Z,7.70
2023-01-07T09:47:57.066Z,7.70
2023-01-07T09:50:52.753Z,7.80
2023-01-07T09:53:46.299Z,7.80
2023-01-07T09:56:37.308Z,7.90
2023-01-07T09:59:26.213Z,8.00
2023-01-07T10:02:28.897Z,8.00
2023-01-07T10:05:29.040Z,8.10
2023-01-07T10:08:32.663Z,8.10
2023-01-07T10:11:37.400Z,8.10
2023-01-07T10:14:47.155Z,8.10
2023-01-07T10:17:49.111Z,8.20
2023-01-07T10:20:46.872Z,8.30
2023-01-07T10:23:40.122Z,8.30
2023-01-07T10:26:36.489Z,8.30
2023-01-07T10:29:32.642Z,8.30
2023-01-07T10:32:23.698Z,8.40
2023-01-07T10:35:19.222Z,8.50
2023-01-07T10:38:13.524Z,8.40
2023-01-07T10:41:08.108Z,8.40
2023-01-07T10:44:12.311Z,8.40
2023-01-07T10:47:12.494Z,8.50
2023-01-07T10:50:25.322Z,8.40
2023-01-07T10:53:24.694Z,8.40
2023-01-07T10:56:25.464Z,8.50
2023-01-07T10:59:18.288Z,8.50
2023-01-07T11:02:18.735Z,8.60
2023-01-07T11:05:13.460Z,8.60
2023-01-07T11:08:04.644Z,8.80
2023-01-07T11:10:53.778Z,8.70
2023-01-07T11:13:45.574Z,8.80
2023-01-07T11:16:39.790Z,8.80
2023-01-07T11:19:44.334Z,8.80
2023-01-07T11:22:35.813Z,8.70
2023-01-07T11:25:31.099Z,8.70
2023-01-07T11:28:21.581Z,8.80
2023-01-07T11:31:10.734Z,8.90
2023-01-07T11:34:04.442Z,8.90
2023-01-07T11:36:53.568Z,9.00
2023-01-07T11:39:42.235Z,9.00
2023-01-07T11:42:39.619Z,8.90
2023-01-07T11:45:32.162Z,8.90
2023-01-07T11:48:28.184Z,8.90
2023-01-07T11:51:18.536Z,8.70
2023-01-07T11:54:07.219Z,8.70
2023-01-07T11:57:13.290Z,8.70
2023-01-07T12:00:15.435Z,8.60
2023-01-07T12:03:12.702Z,8.50
2023-01-07T12:06:09.153Z,8.50
2023-01-07T12:09:06.280Z,8.60
2023-01-07T12:11:58.023Z,8.50
2023-01-07T12:14:49.020Z,8.50
2023-01-07T12:17:39.334Z,8.50
2023-01-07T12:20:56.331Z,8.50
2023-01-07T12:24:00.887Z,8.50
2023-01-07T12:26:56.895Z,8.40
2023-01-07T12:29:56.981Z,8.50
2023-01-07T12:32:52.643Z,8.40
2023-01-07T12:35:44.915Z,8.40
2023-01-07T12:38:42.160Z,8.40
2023-01-07T12:41:37.564Z,8.40
2023-01-07T12:44:28.294Z,8.30
2023-01-07T12:47:30.930Z,8.30
2023-01-07T12:50:28.875Z,8.30
2023-01-07T12:53:25.442Z,8.40
2023-01-07T12:56:19.254Z,8.30
2023-01-07T12:59:46.099Z,8.30
2023-01-07T13:02:37.417Z,8.20
2023-01-07T13:05:28.977Z,8.20
2023-01-07T13:08:29.589Z,8.20
2023-01-07T13:11:46.298Z,8.20
2023-01-07T13:14:39.028Z,8.20
2023-01-07T13:17:31.541Z,8.20
2023-01-07T13:20:32.861Z,8.30
2023-01-07T13:23:28.836Z,8.20
2023-01-07T13:26:30.999Z,8.20
2023-01-07T13:29:28.853Z,8.20
2023-01-07T13:32:40.404Z,8.20
2023-01-07T13:36:14.303Z,8.20
2023-01-07T13:45:56.432Z,8.20
2023-01-07T13:48:50.813Z,8.30
2023-01-07T13:51:41.607Z,8.30
2023-01-07T13:54:59.451Z,8.30
2023-01-07T13:57:48.840Z,8.40
2023-01-07T14:01:02.460Z,8.50
2023-01-07T14:03:53.679Z,8.50
2023-01-07T14:31:15.367Z,8.30
2023-01-07T14:34:07.725Z,8.30
2023-01-07T14:38:09.827Z,8.20
2023-01-07T14:44:04.507Z,8.00
2023-01-07T14:46:55.773Z,7.90
2023-01-07T14:50:26.360Z,7.90
2023-01-07T14:53:47.826Z,7.80
2023-01-07T14:56:49.500Z,7.70
2023-01-07T15:00:04.193Z,7.70
2023-01-07T15:03:31.805Z,7.60
2023-01-07T15:06:30.340Z,7.60
2023-01-07T15:09:41.457Z,7.60
2023-01-07T15:12:51.398Z,7.60
2023-01-07T15:16:03.172Z,7.60
2023-01-07T15:18:54.615Z,7.60
2023-01-07T15:21:56.429Z,7.70
2023-01-07T15:24:51.988Z,7.70
2023-01-07T15:27:49.624Z,7.80
2023-01-07T15:30:49.177Z,7.80
2023-01-07T15:34:00.179Z,7.80
2023-01-07T15:36:52.813Z,7.80
2023-01-07T15:39:48.731Z,7.80
2023-01-07T15:42:38.117Z,7.80
2023-01-07T15:45:28.979Z,7.80
2023-01-07T15:48:17.920Z,7.80
2023-01-07T15:51:17.101Z,7.80
2023-01-07T15:54:07.574Z,7.80
2023-01-07T15:57:00.562Z,7.80
2023-01-07T15:59:52.140Z,7.80
2023-01-07T16:02:44.383Z,7.80
2023-01-07T16:05:33.355Z,7.70
2023-01-07T16:08:26.416Z,7.70
2023-01-07T16:11:26.240Z,7.60
2023-01-07T16:14:17.547Z,7.40
2023-01-07T16:17:14.362Z,7.30
2023-01-07T16:20:22.676Z,7.20
2023-01-07T16:23:21.655Z,7.20
2023-01-07T16:26:14.341Z,7.20
2023-01-07T16:29:11.048Z,7.20
2023-01-07T16:32:01.438Z,7.20
2023-01-07T16:35:03.348Z,7.20
2023-01-07T16:37:53.864Z,7.10
2023-01-07T16:40:42.975Z,7.10
2023-01-07T16:43:44.334Z,7.20
2023-01-07T16:46:36.140Z,7.20
2023-01-07T16:49:29.904Z,7.30
2023-01-07T16:52:20.374Z,7.30
2023-01-07T16:55:49.285Z,7.20
2023-01-07T16:58:42.711Z,7.20
2023-01-07T17:01:35.279Z,7.20
2023-01-07T17:04:28.031Z,7.10
2023-01-07T17:07:23.035Z,7.10
2023-01-07T17:10:21.664Z,7.10
2023-01-07T17:13:34.948Z,7.20
2023-01-07T17:16:29.609Z,7.20
2023-01-07T17:19:27.330Z,7.20
2023-01-07T17:22:30.384Z,7.20
2023-01-07T17:25:25.660Z,7.30
2023-01-07T17:28:19.543Z,7.30
2023-01-07T17:31:08.340Z,7.30
2023-01-07T17:33:57.297Z,7.30
2023-01-07T17:36:47.492Z,7.20
2023-01-07T17:39:36.153Z,7.20
2023-01-07T17:42:45.755Z,7.20
2023-01-07T17:45:34.682Z,7.10
2023-01-07T17:48:23.325Z,7.20
2023-01-07T17:51:14.113Z,7.10
2023-01-07T17:54:04.285Z,7.10
2023-01-07T17:56:53.531Z,7.20
2023-01-07T17:59:47.536Z,7.10
2023-01-07T18:02:36.693Z,7.10
2023-01-07T18:05:27.297Z,7.10
2023-01-07T18:08:15.917Z,7.10
2023-01-07T18:11:23.767Z,7.00
2023-01-07T18:14:14.606Z,7.00
2023-01-07T18:17:03.209Z,7.00
2023-01-07T18:19:51.850Z,6.90
2023-01-07T18:22:40.587Z,6.90
2023-01-07T18:25:29.279Z,6.90
2023-01-07T18:28:19.484Z,6.90
2023-01-07T18:31:08.393Z,6.90
2023-01-07T18:33:56.997Z,6.90
2023-01-07T18:36:45.608Z,6.90
2023-01-07T18:39:34.302Z,7.00
2023-01-07T18:42:22.963Z,7.10
2023-01-07T18:45:13.808Z,7.10
2023-01-07T18:48:02.405Z,7.10
2023-01-07T18:50:51.291Z,7.10
2023-01-07T18:53:40.156Z,7.20
2023-01-07T18:56:28.767Z,7.20
2023-01-07T18:59:17.621Z,7.20
2023-01-07T19:02:09.509Z,7.30
2023-01-07T19:04:58.506Z,7.30
2023-01-07T19:07:47.174Z,7.30
2023-01-07T19:10:36.050Z,7.30
2023-01-07T19:13:24.697Z,7.30
2023-01-07T19:16:14.596Z,7.30
2023-01-07T19:19:04.813Z,7.30
2023-01-07T19:21:53.668Z,7.20
2023-01-07T19:24:42.387Z,7.20
2023-01-07T19:27:30.962Z,7.30
2023-01-07T19:30:19.793Z,7.30
2023-01-07T19:33:08.426Z,7.30
2023-01-07T19:36:04.654Z,7.30
2023-01-07T19:38:53.302Z,7.30
2023-01-07T19:41:42.892Z,7.40
2023-01-07T19:44:31.513Z,7.40
2023-01-07T19:47:20.126Z,7.40
2023-01-07T19:50:09.564Z,7.40
2023-01-07T19:53:00.511Z,7.40
2023-01-07T19:55:49.212Z,7.30
2023-01-07T19:58:39.125Z,7.30
2023-01-07T20:01:28.882Z,7.30
2023-01-07T20:04:17.660Z,7.30
2023-01-07T20:07:10.207Z,7.30
2023-01-07T20:09:58.918Z,7.40
2023-01-07T20:12:47.560Z,7.40
2023-01-07T20:15:36.182Z,7.50
2023-01-07T20:18:24.912Z,7.50
2023-01-07T20:21:14.945Z,7.60
2023-01-07T20:24:06.304Z,7.60
2023-01-07T20:26:55.075Z,7.60
2023-01-07T20:29:43.786Z,7.70
2023-01-07T20:32:32.399Z,7.60
2023-01-07T20:35:22.767Z,7.60
2023-01-07T20:38:11.789Z,7.70
2023-01-07T20:41:03.564Z,7.70
2023-01-07T20:43:53.952Z,7.60
2023-01-07T20:46:42.691Z,7.60
2023-01-07T20:49:31.298Z,7.60
2023-01-07T20:52:19.881Z,7.60
2023-01-07T20:55:09.545Z,7.70
2023-01-07T20:57:59.589Z,7.70
2023-01-07T21:00:49.030Z,7.70
2023-01-07T21:03:38.951Z,7.70
2023-01-07T21:06:27.580Z,7.80
2023-01-07T21:09:16.285Z,7.70
2023-01-07T21:12:05.353Z,7.70
2023-01-07T21:14:55.707Z,7.70
2023-01-07T21:17:44.499Z,7.70
2023-01-07T21:20:33.120Z,7.60
2023-01-07T21:23:21.734Z,7.60
2023-01-07T21:26:12.909Z,7.60
2023-01-07T21:29:01.556Z,7.70
2023-01-07T21:31:53.583Z,7.60
2023-01-07T21:34:42.365Z,7.60
2023-01-07T21:37:30.964Z,7.60
2023-01-07T21:40:19.707Z,7.60
2023-01-07T21:43:08.380Z,7.60
2023-01-07T21:46:00.638Z,7.70
2023-01-07T21:48:51.886Z,7.70
2023-01-07T21:51:40.459Z,7.70
2023-01-07T21:54:29.634Z,7.70
2023-01-07T21:57:18.353Z,7.70
2023-01-07T22:00:08.917Z,7.70
2023-01-07T22:02:57.542Z,7.70
2023-01-07T22:05:57.276Z,7.70
2023-01-07T22:08:45.843Z,7.80
2023-01-07T22:11:35.684Z,7.70
2023-01-07T22:14:24.513Z,7.80
2023-01-07T22:17:15.104Z,7.80
2023-01-07T22:20:03.833Z,7.80
2023-01-07T22:22:53.857Z,7.90
2023-01-07T22:25:42.490Z,7.90
2023-01-07T22:28:33.155Z,7.90
2023-01-07T22:31:24.349Z,7.90
2023-01-07T22:34:12.996Z,7.90
2023-01-07T22:37:06.379Z,7.80
2023-01-07T22:39:58.674Z,7.80
2023-01-07T22:42:53.237Z,7.70
2023-01-07T22:45:46.389Z,7.70
2023-01-07T22:48:36.936Z,7.70
2023-01-07T22:51:28.112Z,7.70
2023-01-07T22:54:18.097Z,7.70
2023-01-07T22:57:11.800Z,7.70
2023-01-07T23:00:00.686Z,7.70
2023-01-07T23:02:49.303Z,7.70
2023-01-07T23:05:39.881Z,7.60
2023-01-07T23:08:28.533Z,7.60
2023-01-07T23:11:37.204Z,7.70
2023-01-07T23:14:28.965Z,7.70
2023-01-07T23:17:17.516Z,7.70
2023-01-07T23:20:07.071Z,7.70
2023-01-07T23:22:55.667Z,7.70
2023-01-07T23:25:48.307Z,7.70
2023-01-07T23:28:36.908Z,7.70
2023-01-07T23:31:27.085Z,7.70
2023-01-07T23:34:16.504Z,7.60
2023-01-07T23:37:05.141Z,7.60
2023-01-07T23:39:53.770Z,7.60
2023-01-07T23:42:45.898Z,7.60
2023-01-07T23:45:34.565Z,7.70
2023-01-07T23:48:24.566Z,7.70
2023-01-07T23:51:15.286Z,7.70
2023-01-07T23:54:03.891Z,7.70
2023-01-07T23:56:52.588Z,7.70
2023-01-07T23:59:42.199Z,7.80
